sensor_id;sensor_type;location;lat;lon;timestamp;temperature;humidity
29007;DHT22;16104;48.642;9.008;2022-07-29T01:04:22;22.30;58.00
29007;DHT22;16104;48.642;9.008;2022-07-29T01:09:18;22.20;57.20
29007;DHT22;16104;48.642;9.008;2022-07-29T01:14:15;22.20;57.40
29007;DHT22;16104;48.642;9.008;2022-07-29T02:05:00;21.70;58.50
29007;DHT22;16104;48.642;9.008;2022-07-29T02:09:58;21.70;58.90
29007;DHT22;16104;48.642;9.008;2022-07-29T02:14:56;21.60;58.90
29007;DHT22;16104;48.642;9.008;2022-07-29T03:00:44;21.40;58.80
29007;DHT22;16104;48.642;9.008;2022-07-29T03:05:42;21.30;59.20
29007;DHT22;16104;48.642;9.008;2022-07-29T03:10:39;21.30;58.90
29007;DHT22;16104;48.642;9.008;2022-07-29T03:15:38;21.20;59.30
29007;DHT22;16104;48.642;9.008;2022-07-29T03:20:34;21.10;59.80
29007;DHT22;16104;48.642;9.008;2022-07-29T03:25:29;21.10;59.60
29007;DHT22;16104;48.642;9.008;2022-07-29T03:30:25;21.00;59.70
29007;DHT22;16104;48.642;9.008;2022-07-29T03:35:21;21.00;59.90
29007;DHT22;16104;48.642;9.008;2022-07-29T03:40:24;20.90;59.60
29007;DHT22;16104;48.642;9.008;2022-07-29T03:45:22;20.90;60.00
29007;DHT22;16104;48.642;9.008;2022-07-29T03:50:18;20.80;59.80
29007;DHT22;16104;48.642;9.008;2022-07-29T03:55:16;20.80;60.00
29007;DHT22;16104;48.642;9.008;2022-07-29T04:00:12;20.80;60.10
29007;DHT22;16104;48.642;9.008;2022-07-29T04:05:12;20.70;59.90
29007;DHT22;16104;48.642;9.008;2022-07-29T04:10:08;20.70;60.60
29007;DHT22;16104;48.642;9.008;2022-07-29T04:15:04;20.70;59.10
29007;DHT22;16104;48.642;9.008;2022-07-29T04:20:00;20.70;59.70
29007;DHT22;16104;48.642;9.008;2022-07-29T04:24:56;20.60;60.00
29007;DHT22;16104;48.642;9.008;2022-07-29T04:29:51;20.60;60.00
29007;DHT22;16104;48.642;9.008;2022-07-29T04:34:47;20.60;60.20
29007;DHT22;16104;48.642;9.008;2022-07-29T04:39:43;20.50;60.20
29007;DHT22;16104;48.642;9.008;2022-07-29T04:44:38;20.50;60.30
29007;DHT22;16104;48.642;9.008;2022-07-29T04:49:34;20.60;60.80
29007;DHT22;16104;48.642;9.008;2022-07-29T04:54:32;20.50;60.90
29007;DHT22;16104;48.642;9.008;2022-07-29T04:59:28;20.60;61.50
29007;DHT22;16104;48.642;9.008;2022-07-29T05:04:24;20.60;61.90
29007;DHT22;16104;48.642;9.008;2022-07-29T05:09:19;20.60;61.70
29007;DHT22;16104;48.642;9.008;2022-07-29T05:14:15;20.70;62.00
29007;DHT22;16104;48.642;9.008;2022-07-29T05:19:10;20.80;62.10
29007;DHT22;16104;48.642;9.008;2022-07-29T05:24:06;20.80;61.90
29007;DHT22;16104;48.642;9.008;2022-07-29T05:29:01;20.80;62.00
29007;DHT22;16104;48.642;9.008;2022-07-29T05:33:57;20.90;61.70
29007;DHT22;16104;48.642;9.008;2022-07-29T05:38:52;21.00;62.00
29007;DHT22;16104;48.642;9.008;2022-07-29T05:43:48;21.00;61.80
29007;DHT22;16104;48.642;9.008;2022-07-29T05:48:43;21.10;62.40
29007;DHT22;16104;48.642;9.008;2022-07-29T05:53:39;21.20;62.10
29007;DHT22;16104;48.642;9.008;2022-07-29T05:58:34;21.20;62.00
29007;DHT22;16104;48.642;9.008;2022-07-29T06:03:30;21.30;62.00
29007;DHT22;16104;48.642;9.008;2022-07-29T06:08:25;21.40;62.30
29007;DHT22;16104;48.642;9.008;2022-07-29T06:13:21;21.40;62.30
29007;DHT22;16104;48.642;9.008;2022-07-29T06:18:16;21.50;62.50
29007;DHT22;16104;48.642;9.008;2022-07-29T06:23:12;21.50;61.90
29007;DHT22;16104;48.642;9.008;2022-07-29T06:28:07;21.70;62.30
29007;DHT22;16104;48.642;9.008;2022-07-29T06:33:03;21.80;61.90
29007;DHT22;16104;48.642;9.008;2022-07-29T06:37:59;21.90;61.70
29007;DHT22;16104;48.642;9.008;2022-07-29T06:42:55;22.10;61.60
29007;DHT22;16104;48.642;9.008;2022-07-29T06:47:50;22.30;61.40
29007;DHT22;16104;48.642;9.008;2022-07-29T06:52:46;22.40;61.10
29007;DHT22;16104;48.642;9.008;2022-07-29T06:57:41;22.50;60.90
29007;DHT22;16104;48.642;9.008;2022-07-29T07:02:37;22.60;60.60
29007;DHT22;16104;48.642;9.008;2022-07-29T07:07:32;22.80;60.40
29007;DHT22;16104;48.642;9.008;2022-07-29T07:12:28;22.90;60.30
29007;DHT22;16104;48.642;9.008;2022-07-29T07:17:23;23.00;60.30
29007;DHT22;16104;48.642;9.008;2022-07-29T07:22:19;23.20;60.30
29007;DHT22;16104;48.642;9.008;2022-07-29T07:27:15;23.40;59.70
29007;DHT22;16104;48.642;9.008;2022-07-29T07:32:10;23.50;59.60
29007;DHT22;16104;48.642;9.008;2022-07-29T07:37:06;23.60;59.60
29007;DHT22;16104;48.642;9.008;2022-07-29T07:42:01;23.80;59.30
29007;DHT22;16104;48.642;9.008;2022-07-29T07:46:57;24.00;59.00
29007;DHT22;16104;48.642;9.008;2022-07-29T07:51:52;24.10;58.60
29007;DHT22;16104;48.642;9.008;2022-07-29T07:56:48;24.20;58.30
29007;DHT22;16104;48.642;9.008;2022-07-29T08:01:44;24.30;58.20
29007;DHT22;16104;48.642;9.008;2022-07-29T08:06:40;24.50;58.30
29007;DHT22;16104;48.642;9.008;2022-07-29T08:11:35;24.60;58.20
29007;DHT22;16104;48.642;9.008;2022-07-29T08:16:31;24.80;57.60
29007;DHT22;16104;48.642;9.008;2022-07-29T08:21:26;24.90;57.90
29007;DHT22;16104;48.642;9.008;2022-07-29T08:26:22;25.10;57.30
29007;DHT22;16104;48.642;9.008;2022-07-29T08:31:18;25.30;56.70
29007;DHT22;16104;48.642;9.008;2022-07-29T08:36:14;25.50;56.10
29007;DHT22;16104;48.642;9.008;2022-07-29T08:41:09;25.70;55.50
29007;DHT22;16104;48.642;9.008;2022-07-29T08:46:05;25.90;54.90
29007;DHT22;16104;48.642;9.008;2022-07-29T08:51:01;26.10;53.80
29007;DHT22;16104;48.642;9.008;2022-07-29T08:55:57;26.40;52.90
29007;DHT22;16104;48.642;9.008;2022-07-29T09:00:55;26.60;53.10
29007;DHT22;16104;48.642;9.008;2022-07-29T09:05:51;26.90;51.20
29007;DHT22;16104;48.642;9.008;2022-07-29T09:10:47;27.10;51.40
29007;DHT22;16104;48.642;9.008;2022-07-29T09:15:43;27.30;51.10
29007;DHT22;16104;48.642;9.008;2022-07-29T09:20:39;27.50;50.80
29007;DHT22;16104;48.642;9.008;2022-07-29T09:26:06;27.70;50.10
29007;DHT22;16104;48.642;9.008;2022-07-29T09:31:02;28.00;50.20
29007;DHT22;16104;48.642;9.008;2022-07-29T09:36:05;28.30;49.50
29007;DHT22;16104;48.642;9.008;2022-07-29T09:41:03;28.60;48.60
29007;DHT22;16104;48.642;9.008;2022-07-29T09:46:10;28.80;48.60
29007;DHT22;16104;48.642;9.008;2022-07-29T09:51:17;28.90;47.80
29007;DHT22;16104;48.642;9.008;2022-07-29T09:56:13;29.10;47.70
29007;DHT22;16104;48.642;9.008;2022-07-29T10:01:09;29.40;48.00
29007;DHT22;16104;48.642;9.008;2022-07-29T10:06:10;29.60;48.00
29007;DHT22;16104;48.642;9.008;2022-07-29T10:11:17;29.90;47.50
29007;DHT22;16104;48.642;9.008;2022-07-29T10:16:15;30.20;46.80
29007;DHT22;16104;48.642;9.008;2022-07-29T10:21:12;30.50;46.90
29007;DHT22;16104;48.642;9.008;2022-07-29T10:26:10;30.90;46.70
29007;DHT22;16104;48.642;9.008;2022-07-29T10:31:07;31.20;45.80
29007;DHT22;16104;48.642;9.008;2022-07-29T10:46:39;31.90;42.50
29007;DHT22;16104;48.642;9.008;2022-07-29T10:51:50;31.80;39.90
29007;DHT22;16104;48.642;9.008;2022-07-29T10:56:46;31.60;39.10
29007;DHT22;16104;48.642;9.008;2022-07-29T11:01:42;31.20;41.00
29007;DHT22;16104;48.642;9.008;2022-07-29T11:11:58;29.70;43.10
29007;DHT22;16104;48.642;9.008;2022-07-29T11:17:06;28.90;44.10
29007;DHT22;16104;48.642;9.008;2022-07-29T11:22:03;28.30;46.20
29007;DHT22;16104;48.642;9.008;2022-07-29T11:27:15;27.80;46.30
29007;DHT22;16104;48.642;9.008;2022-07-29T11:32:14;27.30;45.80
29007;DHT22;16104;48.642;9.008;2022-07-29T11:37:16;27.00;47.40
29007;DHT22;16104;48.642;9.008;2022-07-29T11:47:21;26.30;50.00
29007;DHT22;16104;48.642;9.008;2022-07-29T11:52:18;26.10;49.70
29007;DHT22;16104;48.642;9.008;2022-07-29T11:57:17;25.90;50.40
29007;DHT22;16104;48.642;9.008;2022-07-29T12:02:44;25.70;51.70
29007;DHT22;16104;48.642;9.008;2022-07-29T12:07:40;25.60;52.80
29007;DHT22;16104;48.642;9.008;2022-07-29T12:12:37;25.40;52.90
29007;DHT22;16104;48.642;9.008;2022-07-29T12:18:10;25.30;53.10
29007;DHT22;16104;48.642;9.008;2022-07-29T12:23:09;25.20;52.90
29007;DHT22;16104;48.642;9.008;2022-07-29T12:28:12;25.10;53.50
29007;DHT22;16104;48.642;9.008;2022-07-29T12:33:20;25.00;53.90
29007;DHT22;16104;48.642;9.008;2022-07-29T12:38:16;25.00;54.90
29007;DHT22;16104;48.642;9.008;2022-07-29T12:43:17;25.00;54.50
29007;DHT22;16104;48.642;9.008;2022-07-29T12:48:14;25.00;55.40
29007;DHT22;16104;48.642;9.008;2022-07-29T12:53:13;25.00;55.00
29007;DHT22;16104;48.642;9.008;2022-07-29T12:58:09;25.00;55.60
29007;DHT22;16104;48.642;9.008;2022-07-29T13:03:04;24.90;54.90
29007;DHT22;16104;48.642;9.008;2022-07-29T13:08:10;24.80;54.10
29007;DHT22;16104;48.642;9.008;2022-07-29T13:13:15;24.70;54.60
29007;DHT22;16104;48.642;9.008;2022-07-29T13:18:31;24.50;55.00
29007;DHT22;16104;48.642;9.008;2022-07-29T13:23:27;24.50;56.70
29007;DHT22;16104;48.642;9.008;2022-07-29T13:28:22;24.40;56.70
29007;DHT22;16104;48.642;9.008;2022-07-29T13:33:18;24.40;57.10
29007;DHT22;16104;48.642;9.008;2022-07-29T13:38:14;24.40;57.50
29007;DHT22;16104;48.642;9.008;2022-07-29T13:43:10;24.40;58.00
29007;DHT22;16104;48.642;9.008;2022-07-29T13:48:06;24.50;59.00
29007;DHT22;16104;48.642;9.008;2022-07-29T13:53:01;24.60;58.80
29007;DHT22;16104;48.642;9.008;2022-07-29T13:57:57;24.70;58.20
29007;DHT22;16104;48.642;9.008;2022-07-29T14:02:53;24.90;57.70
29007;DHT22;16104;48.642;9.008;2022-07-29T14:07:48;25.00;56.30
29007;DHT22;16104;48.642;9.008;2022-07-29T14:12:44;25.10;56.10
29007;DHT22;16104;48.642;9.008;2022-07-29T14:17:39;25.20;55.90
29007;DHT22;16104;48.642;9.008;2022-07-29T14:22:35;25.30;56.00
29007;DHT22;16104;48.642;9.008;2022-07-29T14:27:30;25.40;55.30
29007;DHT22;16104;48.642;9.008;2022-07-29T14:32:26;25.50;56.30
29007;DHT22;16104;48.642;9.008;2022-07-29T14:37:21;25.70;55.00
29007;DHT22;16104;48.642;9.008;2022-07-29T14:42:17;25.80;55.50
29007;DHT22;16104;48.642;9.008;2022-07-29T14:47:12;25.80;53.70
29007;DHT22;16104;48.642;9.008;2022-07-29T14:52:08;25.90;54.90
29007;DHT22;16104;48.642;9.008;2022-07-29T14:57:03;26.00;53.40
29007;DHT22;16104;48.642;9.008;2022-07-29T15:01:59;26.10;54.40
29007;DHT22;16104;48.642;9.008;2022-07-29T15:06:54;26.10;54.20
29007;DHT22;16104;48.642;9.008;2022-07-29T15:11:50;26.20;54.40
29007;DHT22;16104;48.642;9.008;2022-07-29T15:16:45;26.30;55.20
29007;DHT22;16104;48.642;9.008;2022-07-29T15:21:41;26.40;55.00
29007;DHT22;16104;48.642;9.008;2022-07-29T15:26:36;26.40;55.00
29007;DHT22;16104;48.642;9.008;2022-07-29T15:31:32;26.50;54.70
29007;DHT22;16104;48.642;9.008;2022-07-29T15:36:28;26.50;53.90
29007;DHT22;16104;48.642;9.008;2022-07-29T15:41:23;26.50;53.90
29007;DHT22;16104;48.642;9.008;2022-07-29T15:46:19;26.60;54.30
29007;DHT22;16104;48.642;9.008;2022-07-29T15:51:34;26.70;53.90
29007;DHT22;16104;48.642;9.008;2022-07-29T15:56:30;26.70;53.70
29007;DHT22;16104;48.642;9.008;2022-07-29T16:01:26;26.70;53.80
29007;DHT22;16104;48.642;9.008;2022-07-29T16:06:22;26.80;54.80
29007;DHT22;16104;48.642;9.008;2022-07-29T16:11:17;26.80;54.90
29007;DHT22;16104;48.642;9.008;2022-07-29T16:16:13;26.80;54.10
29007;DHT22;16104;48.642;9.008;2022-07-29T16:21:10;26.90;54.10
29007;DHT22;16104;48.642;9.008;2022-07-29T16:26:06;26.90;54.80
29007;DHT22;16104;48.642;9.008;2022-07-29T16:31:02;27.00;54.20
29007;DHT22;16104;48.642;9.008;2022-07-29T16:35:57;27.10;53.10
29007;DHT22;16104;48.642;9.008;2022-07-29T16:40:53;27.10;53.00
29007;DHT22;16104;48.642;9.008;2022-07-29T16:45:48;27.10;53.00
29007;DHT22;16104;48.642;9.008;2022-07-29T16:50:44;27.10;53.20
29007;DHT22;16104;48.642;9.008;2022-07-29T16:55:40;27.10;53.00
29007;DHT22;16104;48.642;9.008;2022-07-29T17:00:35;27.10;52.80
29007;DHT22;16104;48.642;9.008;2022-07-29T17:05:31;27.20;52.40
29007;DHT22;16104;48.642;9.008;2022-07-29T17:10:27;27.20;52.30
29007;DHT22;16104;48.642;9.008;2022-07-29T17:15:24;27.20;51.70
29007;DHT22;16104;48.642;9.008;2022-07-29T17:20:19;27.20;51.40
29007;DHT22;16104;48.642;9.008;2022-07-29T17:25:15;27.20;51.40
29007;DHT22;16104;48.642;9.008;2022-07-29T17:30:10;27.30;51.30
29007;DHT22;16104;48.642;9.008;2022-07-29T17:35:07;27.20;50.00
29007;DHT22;16104;48.642;9.008;2022-07-29T17:40:23;27.20;49.10
29007;DHT22;16104;48.642;9.008;2022-07-29T17:45:18;27.30;48.50
29007;DHT22;16104;48.642;9.008;2022-07-29T17:50:14;27.30;47.70
29007;DHT22;16104;48.642;9.008;2022-07-29T17:55:09;27.40;48.40
29007;DHT22;16104;48.642;9.008;2022-07-29T18:00:07;27.50;48.30
29007;DHT22;16104;48.642;9.008;2022-07-29T18:05:03;27.50;47.30
29007;DHT22;16104;48.642;9.008;2022-07-29T18:09:59;27.60;47.00
29007;DHT22;16104;48.642;9.008;2022-07-29T18:14:55;27.70;46.70
29007;DHT22;16104;48.642;9.008;2022-07-29T18:19:50;27.70;46.10
29007;DHT22;16104;48.642;9.008;2022-07-29T18:24:47;27.70;45.50
29007;DHT22;16104;48.642;9.008;2022-07-29T18:29:42;27.70;46.10
29007;DHT22;16104;48.642;9.008;2022-07-29T18:34:38;27.70;46.10
29007;DHT22;16104;48.642;9.008;2022-07-29T18:39:33;27.70;46.40
29007;DHT22;16104;48.642;9.008;2022-07-29T18:44:29;27.60;46.00
29007;DHT22;16104;48.642;9.008;2022-07-29T18:49:24;27.60;45.80
29007;DHT22;16104;48.642;9.008;2022-07-29T18:54:20;27.50;45.90
29007;DHT22;16104;48.642;9.008;2022-07-29T18:59:15;27.30;46.00
29007;DHT22;16104;48.642;9.008;2022-07-29T19:04:14;27.20;46.90
29007;DHT22;16104;48.642;9.008;2022-07-29T19:09:10;27.10;46.10
29007;DHT22;16104;48.642;9.008;2022-07-29T19:14:06;26.90;45.90
29007;DHT22;16104;48.642;9.008;2022-07-29T19:19:02;26.80;46.10
29007;DHT22;16104;48.642;9.008;2022-07-29T19:23:57;26.70;46.30
29007;DHT22;16104;48.642;9.008;2022-07-29T19:28:53;26.60;46.00
29007;DHT22;16104;48.642;9.008;2022-07-29T19:33:49;26.40;46.20
29007;DHT22;16104;48.642;9.008;2022-07-29T19:38:44;26.30;46.30
29007;DHT22;16104;48.642;9.008;2022-07-29T19:43:40;26.10;46.20
29007;DHT22;16104;48.642;9.008;2022-07-29T19:48:35;25.90;46.40
29007;DHT22;16104;48.642;9.008;2022-07-29T19:53:31;25.80;46.70
29007;DHT22;16104;48.642;9.008;2022-07-29T19:58:27;25.60;46.60
29007;DHT22;16104;48.642;9.008;2022-07-29T20:03:22;25.40;46.80
29007;DHT22;16104;48.642;9.008;2022-07-29T20:08:18;25.20;46.90
29007;DHT22;16104;48.642;9.008;2022-07-29T20:13:13;25.10;46.90
29007;DHT22;16104;48.642;9.008;2022-07-29T20:18:09;24.90;46.80
29007;DHT22;16104;48.642;9.008;2022-07-29T20:23:04;24.80;47.40
29007;DHT22;16104;48.642;9.008;2022-07-29T20:28:00;24.70;47.60
29007;DHT22;16104;48.642;9.008;2022-07-29T20:32:56;24.50;47.90
29007;DHT22;16104;48.642;9.008;2022-07-29T20:37:51;24.40;48.10
29007;DHT22;16104;48.642;9.008;2022-07-29T20:42:49;24.30;48.40
29007;DHT22;16104;48.642;9.008;2022-07-29T20:47:44;24.10;48.40
29007;DHT22;16104;48.642;9.008;2022-07-29T20:52:40;24.00;48.60
29007;DHT22;16104;48.642;9.008;2022-07-29T20:57:37;23.90;48.70
29007;DHT22;16104;48.642;9.008;2022-07-29T21:02:33;23.80;49.00
29007;DHT22;16104;48.642;9.008;2022-07-29T21:07:28;23.60;49.00
29007;DHT22;16104;48.642;9.008;2022-07-29T21:12:24;23.50;49.10
29007;DHT22;16104;48.642;9.008;2022-07-29T21:17:19;23.40;49.30
29007;DHT22;16104;48.642;9.008;2022-07-29T21:22:16;23.30;49.20
29007;DHT22;16104;48.642;9.008;2022-07-29T21:27:13;23.20;49.50
29007;DHT22;16104;48.642;9.008;2022-07-29T21:32:27;23.00;49.40
29007;DHT22;16104;48.642;9.008;2022-07-29T21:37:23;23.00;49.50
29007;DHT22;16104;48.642;9.008;2022-07-29T21:42:18;22.90;49.50
29007;DHT22;16104;48.642;9.008;2022-07-29T21:47:14;22.80;49.60
29007;DHT22;16104;48.642;9.008;2022-07-29T21:52:09;22.70;49.60
29007;DHT22;16104;48.642;9.008;2022-07-29T21:57:05;22.60;49.70
29007;DHT22;16104;48.642;9.008;2022-07-29T22:02:00;22.60;50.10
29007;DHT22;16104;48.642;9.008;2022-07-29T22:06:57;22.50;49.90
29007;DHT22;16104;48.642;9.008;2022-07-29T22:11:53;22.50;49.90
29007;DHT22;16104;48.642;9.008;2022-07-29T22:16:48;22.50;50.10
29007;DHT22;16104;48.642;9.008;2022-07-29T22:21:44;22.40;49.90
29007;DHT22;16104;48.642;9.008;2022-07-29T22:26:41;22.30;49.80
29007;DHT22;16104;48.642;9.008;2022-07-29T22:31:36;22.30;50.00
29007;DHT22;16104;48.642;9.008;2022-07-29T22:36:32;22.20;50.20
29007;DHT22;16104;48.642;9.008;2022-07-29T22:41:27;22.10;50.50
29007;DHT22;16104;48.642;9.008;2022-07-29T22:46:23;22.10;50.70
29007;DHT22;16104;48.642;9.008;2022-07-29T22:51:19;22.00;51.00
29007;DHT22;16104;48.642;9.008;2022-07-29T22:56:14;21.90;51.10
29007;DHT22;16104;48.642;9.008;2022-07-29T23:01:10;21.90;51.10
29007;DHT22;16104;48.642;9.008;2022-07-29T23:06:06;21.80;51.40
29007;DHT22;16104;48.642;9.008;2022-07-29T23:11:01;21.70;51.50
29007;DHT22;16104;48.642;9.008;2022-07-29T23:15:57;21.60;51.70
29007;DHT22;16104;48.642;9.008;2022-07-29T23:20:52;21.50;52.20
29007;DHT22;16104;48.642;9.008;2022-07-29T23:25:48;21.50;52.20
29007;DHT22;16104;48.642;9.008;2022-07-29T23:30:43;21.40;52.20
29007;DHT22;16104;48.642;9.008;2022-07-29T23:35:39;21.40;52.60
29007;DHT22;16104;48.642;9.008;2022-07-29T23:40:34;21.30;52.90
29007;DHT22;16104;48.642;9.008;2022-07-29T23:45:30;21.20;53.10
29007;DHT22;16104;48.642;9.008;2022-07-29T23:50:25;21.10;53.20
29007;DHT22;16104;48.642;9.008;2022-07-29T23:55:21;21.10;53.40
